Time;durP1;ratioP1;P1;durP2;ratioP2;P2;SDS_P1;SDS_P2;PMS_P1;PMS_P2;Temp;Humidity;BMP_temperature;BMP_pressure;BME280_temperature;BME280_humidity;BME280_pressure;Samples;Min_cycle;Max_cycle;Signal;HPM_P1;HPM_P2
2021/05/16 00:02:12;;;;;;;11.40;4.35;;;;;;;14.02;70.77;100578.75;1778220;80;21044;-73
2021/05/16 00:04:39;;;;;;;7.10;5.05;;;;;;;14.01;70.87;100579.23;1778208;80;21009;-73
2021/05/16 00:07:06;;;;;;;11.83;4.92;;;;;;;14.00;70.93;100580.18;1778301;80;21399;-74
2021/05/16 00:09:33;;;;;;;9.08;4.40;;;;;;;13.99;70.96;100577.68;1778164;80;21509;-74
2021/05/16 00:12:01;;;;;;;7.62;5.50;;;;;;;13.98;70.93;100578.61;1778212;80;20981;-76
2021/05/16 00:14:28;;;;;;;8.23;5.08;;;;;;;13.94;70.87;100584.62;1776177;80;21474;-74
2021/05/16 00:16:55;;;;;;;7.22;4.92;;;;;;;13.89;70.98;100574.42;1769753;81;21049;-75
2021/05/16 00:19:22;;;;;;;9.58;5.75;;;;;;;13.85;71.13;100576.91;1769692;81;20978;-75
2021/05/16 00:21:50;;;;;;;7.72;5.22;;;;;;;13.81;71.37;100572.81;1769708;81;21567;-72
2021/05/16 00:24:17;;;;;;;8.68;4.62;;;;;;;13.78;71.37;100577.47;1769725;81;21009;-74
2021/05/16 00:26:44;;;;;;;6.08;4.58;;;;;;;13.70;71.52;100574.58;1769741;81;21414;-73
2021/05/16 00:29:11;;;;;;;8.03;4.80;;;;;;;13.66;71.73;100578.73;1769721;81;20965;-73
2021/05/16 00:31:38;;;;;;;8.50;5.03;;;;;;;13.59;72.11;100581.95;1769656;81;21013;-72
2021/05/16 00:34:05;;;;;;;8.73;5.08;;;;;;;13.55;72.33;100584.44;1769810;79;21056;-72
2021/05/16 00:36:32;;;;;;;9.95;5.47;;;;;;;13.51;72.43;100579.86;1769650;81;20977;-74
2021/05/16 00:38:58;;;;;;;8.50;4.92;;;;;;;13.51;72.39;100581.66;1769698;81;21049;-72
2021/05/16 00:41:26;;;;;;;10.43;4.90;;;;;;;13.51;72.41;100580.34;1769719;81;20930;-73
2021/05/16 00:43:53;;;;;;;8.20;4.58;;;;;;;13.49;72.32;100577.81;1769600;81;20962;-72
2021/05/16 00:46:19;;;;;;;9.90;5.35;;;;;;;13.45;72.45;100580.30;1769661;81;21065;-73
2021/05/16 00:48:47;;;;;;;7.53;5.05;;;;;;;13.45;72.46;100584.25;1769480;81;20878;-73
2021/05/16 00:51:14;;;;;;;7.12;4.62;;;;;;;13.46;72.46;100580.20;1769585;81;21336;-72
2021/05/16 00:53:42;;;;;;;7.30;5.03;;;;;;;13.48;72.37;100580.09;1769735;79;21064;-73
2021/05/16 00:56:09;;;;;;;9.48;5.10;;;;;;;13.44;72.37;100576.83;1769660;81;21074;-72
2021/05/16 00:58:37;;;;;;;10.30;6.65;;;;;;;13.41;72.60;100574.43;1769693;79;21498;-73
2021/05/16 01:01:08;;;;;;;6.87;5.42;;;;;;;13.41;72.43;100573.11;1769591;79;21120;-73
2021/05/16 01:03:33;;;;;;;11.78;5.53;;;;;;;13.41;72.23;100577.55;1769198;80;20954;-73
2021/05/16 01:06:00;;;;;;;15.30;6.05;;;;;;;13.37;72.16;100585.30;1769486;81;20966;-74
2021/05/16 01:08:29;;;;;;;10.98;6.55;;;;;;;13.31;72.18;100583.94;1769392;80;21502;-72
2021/05/16 01:10:56;;;;;;;14.13;5.92;;;;;;;13.26;72.22;100583.41;1769757;81;21000;-72
2021/05/16 01:13:25;;;;;;;13.20;5.90;;;;;;;13.20;72.39;100575.94;1769546;79;21419;-73
2021/05/16 01:15:52;;;;;;;9.13;5.83;;;;;;;13.14;72.58;100580.32;1770420;80;21364;-72
2021/05/16 01:18:19;;;;;;;11.18;6.53;;;;;;;13.08;72.76;100580.78;1769631;79;20993;-72
2021/05/16 01:20:48;;;;;;;7.33;5.25;;;;;;;13.02;73.01;100585.99;1769623;79;20930;-73
2021/05/16 01:23:26;;;;;;;10.08;6.03;;;;;;;12.95;73.27;100584.75;1769692;79;21047;-73
2021/05/16 01:25:52;;;;;;;13.08;6.62;;;;;;;12.89;73.64;100582.55;1768889;80;20961;-74
2021/05/16 01:28:19;;;;;;;13.15;6.08;;;;;;;12.84;73.81;100586.33;1769540;79;20965;-74
2021/05/16 01:30:48;;;;;;;9.23;5.62;;;;;;;12.82;73.88;100584.77;1769725;81;20922;-75
2021/05/16 01:33:15;;;;;;;13.83;6.28;;;;;;;12.79;73.76;100583.67;1769486;81;21458;-72
2021/05/16 01:35:43;;;;;;;7.75;5.45;;;;;;;12.78;73.69;100585.92;1769602;79;21117;-72
2021/05/16 01:38:11;;;;;;;15.70;6.80;;;;;;;12.79;73.61;100593.72;1769602;79;20973;-72
2021/05/16 01:40:38;;;;;;;11.03;6.53;;;;;;;12.79;73.65;100584.50;1769587;79;21422;-73
2021/05/16 01:43:10;;;;;;;9.35;6.10;;;;;;;12.80;73.78;100586.66;1768920;80;20906;-73
2021/05/16 01:45:36;;;;;;;14.28;6.53;;;;;;;12.81;73.73;100588.36;1769459;79;20886;-73
2021/05/16 01:48:04;;;;;;;7.47;5.53;;;;;;;12.80;73.59;100589.28;1769599;80;21411;-72
2021/05/16 01:50:34;;;;;;;10.93;6.37;;;;;;;12.80;73.53;100594.55;1769435;81;21561;-72
2021/05/16 01:53:03;;;;;;;9.45;5.20;;;;;;;12.79;73.41;100595.52;1769691;80;20954;-73
2021/05/16 01:55:31;;;;;;;8.53;5.53;;;;;;;12.77;73.51;100592.98;1769622;81;20981;-73
2021/05/16 01:57:59;;;;;;;9.35;5.15;;;;;;;12.76;73.56;100592.63;1769589;81;20902;-73
2021/05/16 02:00:39;;;;;;;9.33;5.67;;;;;;;12.75;73.43;100590.92;1769737;81;21085;-73
2021/05/16 02:03:07;;;;;;;7.95;5.47;;;;;;;12.74;73.46;100595.84;1769427;81;21569;-73
2021/05/16 02:05:36;;;;;;;7.62;5.42;;;;;;;12.74;73.35;100591.89;1769037;80;20929;-74
2021/05/16 02:08:04;;;;;;;11.12;5.35;;;;;;;12.74;73.40;100589.70;1769470;79;20890;-74
2021/05/16 02:10:32;;;;;;;10.63;4.85;;;;;;;12.74;73.32;100591.89;1769904;81;20985;-73
2021/05/16 02:13:00;;;;;;;13.15;5.60;;;;;;;12.73;73.46;100593.30;1769317;80;21081;-75
2021/05/16 02:15:27;;;;;;;8.43;4.75;;;;;;;12.70;73.66;100594.36;1771500;80;20945;-73
2021/05/16 02:17:56;;;;;;;9.20;5.92;;;;;;;12.71;73.67;100596.03;1778032;80;20941;-74
2021/05/16 02:20:24;;;;;;;9.23;5.53;;;;;;;12.71;73.71;100598.66;1777991;80;20917;-69
2021/05/16 02:22:52;;;;;;;12.88;5.45;;;;;;;12.70;73.79;100601.42;1778092;80;20981;-73
2021/05/16 02:25:20;;;;;;;8.98;5.72;;;;;;;12.65;74.13;100603.89;1778022;80;21469;-73
2021/05/16 02:29:44;;;;;;;12.47;5.62;;;;;;;12.68;74.62;100600.20;1777072;79;22627;-72
2021/05/16 02:32:11;;;;;;;16.55;6.15;;;;;;;12.68;74.38;100609.89;1750021;82;20938;-72
2021/05/16 02:34:39;;;;;;;13.15;7.40;;;;;;;12.73;73.99;100609.09;1749781;80;21018;-72
2021/05/16 02:37:07;;;;;;;7.67;6.05;;;;;;;12.74;73.83;100612.94;1749644;82;21029;-72
2021/05/16 02:39:35;;;;;;;9.40;5.80;;;;;;;12.76;73.79;100615.44;1749695;80;21354;-72
2021/05/16 02:42:02;;;;;;;14.33;6.83;;;;;;;12.75;73.73;100608.03;1749673;82;21894;-72
2021/05/16 02:44:29;;;;;;;10.38;6.00;;;;;;;12.71;73.87;100613.13;1749510;82;20985;-71
2021/05/16 02:46:59;;;;;;;11.22;6.53;;;;;;;12.69;74.20;100613.70;1749212;82;20977;-72
2021/05/16 02:49:26;;;;;;;10.72;6.70;;;;;;;12.72;74.24;100608.73;1749369;82;20989;-72
2021/05/16 02:51:53;;;;;;;8.70;5.30;;;;;;;12.76;74.20;100614.13;1749393;82;20859;-71
2021/05/16 02:54:20;;;;;;;11.50;6.53;;;;;;;12.80;74.26;100611.17;1719889;82;21419;-74
2021/05/16 02:56:48;;;;;;;12.37;6.33;;;;;;;12.85;73.98;100606.94;1749368;82;21001;-72
2021/05/16 02:59:15;;;;;;;11.85;6.37;;;;;;;12.87;74.08;100606.33;1749511;82;21564;-73
2021/05/16 03:01:44;;;;;;;9.75;6.58;;;;;;;12.94;73.99;100613.31;1749262;80;21356;-73
2021/05/16 03:04:11;;;;;;;10.88;6.22;;;;;;;13.00;74.11;100616.84;1720069;80;20987;-73
2021/05/16 03:06:39;;;;;;;10.32;6.03;;;;;;;13.06;73.99;100612.47;1719905;82;20927;-72
2021/05/16 03:09:08;;;;;;;9.73;6.20;;;;;;;13.12;73.99;100621.27;1749187;82;20930;-73
2021/05/16 03:11:38;;;;;;;9.45;5.90;;;;;;;13.17;74.00;100615.19;1749389;81;20907;-73
2021/05/16 03:14:07;;;;;;;9.55;6.80;;;;;;;13.23;74.15;100614.76;1749194;82;20898;-75
2021/05/16 03:16:36;;;;;;;14.07;6.97;;;;;;;13.30;74.41;100622.26;1749251;82;20878;-73
2021/05/16 03:19:04;;;;;;;14.95;7.53;;;;;;;13.36;74.60;100626.61;1749378;80;20962;-74
2021/05/16 03:21:32;;;;;;;14.78;7.03;;;;;;;13.43;74.51;100622.58;1748254;82;20911;-74
2021/05/16 03:24:01;;;;;;;10.25;7.55;;;;;;;13.57;74.45;100613.67;1749218;82;21783;-74
2021/05/16 03:26:29;;;;;;;18.73;9.18;;;;;;;13.75;74.31;100616.75;1749281;82;20883;-74
2021/05/16 03:28:56;;;;;;;16.97;10.28;;;;;;;13.96;73.70;100619.62;1742150;81;21445;-73
2021/05/16 03:31:24;;;;;;;22.77;12.37;;;;;;;14.15;73.19;100615.60;1736133;81;20915;-74
2021/05/16 03:33:51;;;;;;;26.33;12.13;;;;;;;14.29;72.33;100612.75;1715111;82;20930;-72
2021/05/16 03:36:18;;;;;;;20.37;14.30;;;;;;;14.38;71.88;100606.77;1736176;82;21046;-73
2021/05/16 03:38:45;;;;;;;29.80;13.55;;;;;;;14.46;71.75;100604.39;1735876;81;21392;-74
2021/05/16 03:41:13;;;;;;;25.12;13.05;;;;;;;14.54;71.34;100605.59;1735549;81;20911;-74
2021/05/16 03:43:40;;;;;;;23.00;14.73;;;;;;;14.60;71.25;100602.52;1735474;82;20974;-74
2021/05/16 03:46:07;;;;;;;24.43;15.78;;;;;;;14.65;71.19;100605.64;1714869;82;20939;-74
2021/05/16 03:48:33;;;;;;;26.20;17.48;;;;;;;14.70;70.88;100608.30;1735698;81;21055;-74
2021/05/16 03:51:01;;;;;;;27.77;18.52;;;;;;;14.79;70.91;100605.91;1735367;82;21495;-74
2021/05/16 03:53:28;;;;;;;28.38;18.32;;;;;;;14.90;70.73;100597.50;1735555;81;20986;-73
2021/05/16 03:55:56;;;;;;;26.20;16.97;;;;;;;15.04;70.15;100595.58;1735406;82;20937;-74
2021/05/16 03:58:23;;;;;;;26.95;16.73;;;;;;;15.17;69.78;100594.95;1735549;82;20898;-74
2021/05/16 04:00:52;;;;;;;24.85;15.90;;;;;;;15.30;69.58;100594.34;1735413;82;20879;-74
2021/05/16 04:03:19;;;;;;;28.62;16.32;;;;;;;15.45;69.58;100601.52;1735567;82;21005;-75
2021/05/16 04:05:46;;;;;;;19.95;13.28;;;;;;;15.61;69.40;100594.50;1735577;81;20878;-73
2021/05/16 04:08:13;;;;;;;19.80;12.58;;;;;;;15.79;69.53;100590.03;1735426;81;20890;-73
2021/05/16 04:10:40;;;;;;;29.02;12.50;;;;;;;15.93;69.37;100593.19;1735635;82;21475;-73
2021/05/16 04:13:08;;;;;;;27.17;12.45;;;;;;;16.16;69.52;100588.64;1735483;81;21445;-72
2021/05/16 04:15:35;;;;;;;25.60;13.15;;;;;;;16.47;69.32;100587.83;1735289;82;20875;-72
2021/05/16 04:18:02;;;;;;;18.15;11.95;;;;;;;16.89;68.62;100595.23;1735560;82;20907;-73
2021/05/16 04:20:31;;;;;;;19.12;11.15;;;;;;;17.41;67.61;100599.10;1735498;82;21095;-73
2021/05/16 04:22:59;;;;;;;18.55;11.53;;;;;;;17.99;66.44;100600.98;1735565;81;20927;-71
2021/05/16 04:25:28;;;;;;;19.17;11.33;;;;;;;18.61;65.06;100600.94;1735455;82;21075;-74
2021/05/16 04:27:55;;;;;;;21.80;10.43;;;;;;;19.24;63.77;100597.59;1735349;82;20895;-73
2021/05/16 04:30:22;;;;;;;19.70;11.08;;;;;;;19.88;62.25;100594.44;1735968;81;20899;-74
2021/05/16 04:32:49;;;;;;;19.73;11.08;;;;;;;20.48;60.31;100597.72;1735598;82;20963;-74
2021/05/16 04:35:16;;;;;;;19.23;11.33;;;;;;;21.01;58.70;100592.33;1735458;82;20902;-74
2021/05/16 04:37:43;;;;;;;19.25;12.13;;;;;;;21.51;57.64;100586.18;1735511;82;21048;-75
2021/05/16 04:40:11;;;;;;;14.60;11.78;;;;;;;22.01;56.21;100581.70;1735501;81;21511;-72
2021/05/16 04:42:38;;;;;;;22.32;12.45;;;;;;;22.49;54.76;100582.68;1735477;81;21582;-71
2021/05/16 04:45:07;;;;;;;26.20;13.25;;;;;;;23.01;53.09;100579.53;1735410;81;20907;-73
2021/05/16 04:47:34;;;;;;;25.27;13.48;;;;;;;23.48;51.03;100589.30;1735547;82;21404;-74
2021/05/16 04:50:01;;;;;;;15.10;11.68;;;;;;;23.91;49.32;100585.66;1735480;82;21028;-72
2021/05/16 04:52:28;;;;;;;20.65;11.40;;;;;;;24.34;48.70;100587.27;1735350;82;21451;-73
2021/05/16 04:54:55;;;;;;;18.32;10.70;;;;;;;24.80;48.07;100588.48;1735466;81;21416;-73
2021/05/16 04:57:22;;;;;;;14.50;10.50;;;;;;;25.23;47.01;100583.77;1735414;82;21433;-74
2021/05/16 04:59:51;;;;;;;17.75;11.73;;;;;;;25.63;46.05;100592.24;1735397;82;20958;-73
2021/05/16 05:02:18;;;;;;;14.55;10.60;;;;;;;26.00;45.26;100584.97;1735419;82;21235;-73
2021/05/16 05:04:45;;;;;;;15.20;10.20;;;;;;;26.33;44.39;100589.78;1735451;81;21392;-74
2021/05/16 05:07:15;;;;;;;12.65;9.20;;;;;;;26.63;43.07;100596.59;1735458;82;20872;-73
2021/05/16 05:09:42;;;;;;;18.82;10.43;;;;;;;26.90;42.39;100601.30;1735406;81;20891;-75
2021/05/16 05:12:09;;;;;;;14.28;9.25;;;;;;;27.12;41.64;100593.41;1735590;82;20962;-73
2021/05/16 05:14:36;;;;;;;23.15;9.25;;;;;;;27.33;41.38;100600.58;1735527;82;21044;-74
2021/05/16 05:17:04;;;;;;;17.27;9.95;;;;;;;27.50;40.93;100606.41;1735319;82;20918;-74
2021/05/16 05:19:31;;;;;;;16.67;10.00;;;;;;;27.69;39.84;100599.41;1735588;81;20951;-74
2021/05/16 05:21:59;;;;;;;16.32;7.72;;;;;;;27.94;38.58;100608.27;1736072;81;20977;-75
2021/05/16 05:24:26;;;;;;;12.82;7.83;;;;;;;28.18;37.41;100603.59;1735373;82;20907;-74
2021/05/16 05:26:54;;;;;;;14.53;7.65;;;;;;;28.39;36.20;100599.86;1735403;81;21160;-74
2021/05/16 05:29:21;;;;;;;15.78;8.63;;;;;;;28.60;35.99;100605.55;1738298;81;20974;-75
2021/05/16 05:31:50;;;;;;;11.93;6.72;;;;;;;28.83;35.33;100601.00;1743477;82;20927;-74
2021/05/16 05:34:17;;;;;;;12.23;7.25;;;;;;;29.10;35.84;100603.63;1743395;81;21451;-73
2021/05/16 05:36:45;;;;;;;10.90;6.80;;;;;;;29.40;34.17;100605.78;1743792;82;21085;-76
2021/05/16 05:39:11;;;;;;;11.35;7.17;;;;;;;29.72;34.54;100597.17;1743637;82;21086;-73
2021/05/16 05:41:43;;;;;;;11.88;6.87;;;;;;;30.05;33.38;100595.56;1743457;82;20986;-73
2021/05/16 05:44:09;;;;;;;11.93;7.83;;;;;;;30.34;32.95;100591.36;1743538;80;21598;-72
2021/05/16 05:46:36;;;;;;;11.45;8.43;;;;;;;30.55;31.60;100585.24;1743687;82;20914;-74
2021/05/16 05:49:05;;;;;;;18.05;7.45;;;;;;;30.77;32.31;100591.00;1743492;82;20851;-73
2021/05/16 05:51:31;;;;;;;16.10;7.30;;;;;;;31.04;32.01;100589.36;1743673;82;21554;-73
2021/05/16 05:53:59;;;;;;;14.80;6.45;;;;;;;31.28;31.36;100592.50;1743433;82;20970;-73
2021/05/16 05:56:26;;;;;;;12.43;6.53;;;;;;;31.45;31.06;100595.93;1743421;82;21356;-73
2021/05/16 05:58:53;;;;;;;11.75;4.95;;;;;;;31.60;30.23;100582.77;1743544;82;21026;-74
2021/05/16 06:01:20;;;;;;;8.05;4.10;;;;;;;31.61;29.23;100593.91;1743724;82;20907;-74
2021/05/16 06:03:48;;;;;;;11.08;5.42;;;;;;;31.56;29.06;100590.53;1743591;81;21010;-73
2021/05/16 06:06:15;;;;;;;10.63;3.67;;;;;;;31.45;29.98;100600.81;1743567;82;21530;-73
2021/05/16 06:08:43;;;;;;;8.68;3.67;;;;;;;31.54;29.56;100600.78;1743693;81;20883;-72
2021/05/16 06:11:10;;;;;;;8.73;4.28;;;;;;;31.66;28.66;100596.77;1743575;81;21008;-72
2021/05/16 06:13:37;;;;;;;14.23;4.87;;;;;;;31.74;29.04;100588.27;1743611;82;20870;-73
2021/05/16 06:16:05;;;;;;;8.13;5.40;;;;;;;31.89;29.30;100588.38;1743649;82;21491;-73
2021/05/16 06:18:32;;;;;;;9.95;5.03;;;;;;;31.85;29.41;100579.86;1743464;82;20871;-73
2021/05/16 06:20:59;;;;;;;11.55;3.87;;;;;;;31.93;29.80;100586.84;1743601;81;20891;-73
2021/05/16 06:23:33;;;;;;;10.50;4.75;;;;;;;32.13;28.97;100582.47;1743492;82;20918;-74
2021/05/16 06:25:55;;;;;;;11.68;4.53;;;;;;;32.16;28.51;100587.41;1742350;82;21009;-75
2021/05/16 06:28:22;;;;;;;6.22;3.70;;;;;;;32.17;28.14;100584.47;1743540;82;21051;-78
2021/05/16 06:30:49;;;;;;;11.45;3.87;;;;;;;32.22;28.31;100583.76;1748423;81;21426;-77
2021/05/16 06:33:16;;;;;;;9.15;2.92;;;;;;;32.36;28.32;100582.44;1749445;80;20911;-78
2021/05/16 06:35:43;;;;;;;7.25;2.92;;;;;;;32.48;28.42;100581.59;1749372;82;20930;-79
2021/05/16 06:38:10;;;;;;;5.00;1.82;;;;;;;32.67;28.19;100576.34;1749609;82;20957;-80
2021/05/16 06:40:37;;;;;;;8.13;3.22;;;;;;;32.88;26.63;100563.99;1749336;80;21014;-77
2021/05/16 06:43:05;;;;;;;7.30;2.35;;;;;;;32.81;26.21;100566.85;1749364;80;20902;-77
2021/05/16 06:45:33;;;;;;;10.25;3.27;;;;;;;32.74;26.61;100561.27;1749224;82;20906;-77
2021/05/16 06:48:00;;;;;;;6.83;2.67;;;;;;;32.69;27.00;100553.85;1749217;80;20997;-78
2021/05/16 06:50:27;;;;;;;5.92;2.33;;;;;;;32.75;26.65;100554.77;1749427;82;20918;-76
2021/05/16 06:52:56;;;;;;;8.43;2.15;;;;;;;32.78;26.40;100544.25;1749352;82;21630;-75
2021/05/16 06:55:23;;;;;;;2.90;2.20;;;;;;;32.76;26.02;100543.67;1749313;80;21419;-75
2021/05/16 06:57:50;;;;;;;6.33;2.42;;;;;;;32.79;26.58;100548.64;1749337;80;21475;-77
2021/05/16 07:00:17;;;;;;;3.75;2.00;;;;;;;32.69;25.98;100538.91;1749263;80;21395;-77
2021/05/16 07:02:44;;;;;;;8.25;2.20;;;;;;;32.66;26.16;100535.33;1749332;82;20980;-75
2021/05/16 07:05:12;;;;;;;8.00;2.22;;;;;;;32.70;25.74;100533.76;1749418;80;21050;-76
2021/05/16 07:07:40;;;;;;;3.67;1.77;;;;;;;32.73;25.75;100541.98;1749186;82;20989;-75
2021/05/16 07:10:08;;;;;;;4.90;1.90;;;;;;;32.80;25.61;100533.16;1749278;82;21478;-75
2021/05/16 07:12:35;;;;;;;5.12;2.20;;;;;;;32.87;25.23;100537.91;1749340;82;20902;-76
2021/05/16 07:15:03;;;;;;;7.90;2.65;;;;;;;32.90;25.44;100530.62;1749488;80;20894;-74
2021/05/16 07:17:30;;;;;;;8.73;1.57;;;;;;;33.06;26.66;100528.22;1749517;82;21055;-78
2021/05/16 07:19:57;;;;;;;4.10;1.80;;;;;;;33.29;26.04;100524.58;1749549;82;20902;-77
2021/05/16 07:22:24;;;;;;;17.75;3.20;;;;;;;33.49;25.84;100518.13;1749419;82;20910;-76
2021/05/16 07:24:53;;;;;;;6.17;2.22;;;;;;;33.68;25.68;100518.72;1749464;82;20902;-78
2021/05/16 07:27:20;;;;;;;3.25;1.32;;;;;;;33.78;24.72;100517.52;1749554;82;20894;-76
2021/05/16 07:29:49;;;;;;;5.40;1.90;;;;;;;33.79;25.00;100515.63;1749327;80;21816;-75
2021/05/16 07:32:17;;;;;;;3.77;1.05;;;;;;;33.79;24.75;100517.80;1749413;81;20886;-75
2021/05/16 07:34:45;;;;;;;2.92;1.12;;;;;;;33.87;24.71;100515.21;1749376;82;20894;-75
2021/05/16 07:37:12;;;;;;;7.72;1.62;;;;;;;34.00;25.14;100517.58;1749451;82;20906;-76
2021/05/16 07:39:39;;;;;;;2.83;1.62;;;;;;;34.30;24.50;100516.92;1749473;82;21510;-77
2021/05/16 07:42:06;;;;;;;5.70;1.27;;;;;;;34.57;24.35;100508.27;1749556;82;21070;-76
2021/05/16 07:44:34;;;;;;;7.35;1.30;;;;;;;34.70;22.96;100515.26;1749287;82;21467;-79
2021/05/16 07:47:01;;;;;;;4.42;1.12;;;;;;;34.56;23.61;100506.62;1749427;82;21503;-78
2021/05/16 07:49:28;;;;;;;7.22;1.45;;;;;;;34.49;23.05;100509.28;1749534;82;21018;-77
2021/05/16 07:51:54;;;;;;;5.10;1.15;;;;;;;34.61;23.92;100500.41;1749571;82;21027;-75
2021/05/16 07:54:21;;;;;;;8.25;1.30;;;;;;;34.81;22.96;100503.39;1749373;82;21067;-80
2021/05/16 07:56:48;;;;;;;3.40;1.07;;;;;;;34.85;22.89;100499.62;1749522;82;20898;-77
2021/05/16 07:59:15;;;;;;;5.83;1.30;;;;;;;34.82;23.60;100498.78;1749649;82;20859;-76
2021/05/16 08:01:42;;;;;;;4.25;1.47;;;;;;;34.66;23.75;100496.41;1749415;82;20910;-78
2021/05/16 08:04:09;;;;;;;6.05;1.05;;;;;;;34.74;24.87;100495.15;1749627;80;20907;-78
2021/05/16 08:06:37;;;;;;;8.63;1.07;;;;;;;34.90;23.29;100490.68;1749425;82;21383;-79
2021/05/16 08:09:04;;;;;;;1.77;0.95;;;;;;;34.93;22.66;100489.63;1749370;80;20926;-78
2021/05/16 08:11:31;;;;;;;1.82;1.10;;;;;;;34.94;23.06;100481.73;1749557;82;20906;-75
2021/05/16 08:13:58;;;;;;;7.83;1.12;;;;;;;35.02;22.80;100479.09;1749515;82;20993;-76
2021/05/16 08:16:26;;;;;;;4.72;1.98;;;;;;;35.05;22.63;100486.74;1749556;82;20866;-75
2021/05/16 08:18:52;;;;;;;7.90;2.55;;;;;;;35.00;22.10;100477.16;1749400;82;21039;-75
2021/05/16 08:21:20;;;;;;;1.50;1.20;;;;;;;34.87;22.33;100467.49;1749516;80;21013;-80
2021/05/16 08:23:48;;;;;;;3.90;1.32;;;;;;;34.78;22.43;100478.03;1749524;82;20997;-79
2021/05/16 08:26:15;;;;;;;2.50;0.95;;;;;;;34.43;23.28;100480.59;1749685;82;20958;-80
2021/05/16 08:28:42;;;;;;;4.62;1.00;;;;;;;34.12;23.95;100479.39;1749468;82;20910;-76
2021/05/16 08:31:10;;;;;;;2.33;1.00;;;;;;;33.72;23.29;100474.98;1739058;80;21110;-75
2021/05/16 08:33:37;;;;;;;3.45;1.10;;;;;;;33.31;24.34;100471.61;1735495;82;21126;-73
2021/05/16 08:36:04;;;;;;;9.65;2.80;;;;;;;32.97;24.02;100469.34;1735355;82;20893;-70
2021/05/16 08:38:31;;;;;;;7.78;2.90;;;;;;;32.81;26.28;100471.77;1735387;81;21491;-69
2021/05/16 08:40:58;;;;;;;6.72;1.17;;;;;;;32.50;26.87;100468.16;1735444;81;20907;-70
2021/05/16 08:43:25;;;;;;;10.65;2.67;;;;;;;32.28;26.06;100463.91;1735313;82;21812;-69
2021/05/16 08:45:52;;;;;;;7.60;1.45;;;;;;;32.09;26.73;100460.54;1735234;81;20895;-70
2021/05/16 08:48:19;;;;;;;14.63;4.70;;;;;;;31.92;26.37;100457.69;1735484;81;20943;-71
2021/05/16 08:50:46;;;;;;;10.45;2.65;;;;;;;31.96;26.82;100458.87;1735401;82;21436;-71
2021/05/16 08:53:13;;;;;;;2.25;0.90;;;;;;;32.10;27.52;100457.56;1735455;81;20871;-68
2021/05/16 08:55:40;;;;;;;8.70;1.65;;;;;;;32.25;26.39;100456.26;1735343;82;21121;-71
2021/05/16 08:58:08;;;;;;;3.50;1.40;;;;;;;32.29;26.48;100457.43;1735421;82;20879;-69
2021/05/16 09:00:44;;;;;;;3.20;1.55;;;;;;;32.20;25.53;100452.91;1735302;81;20883;-69
2021/05/16 09:03:15;;;;;;;3.15;1.47;;;;;;;32.06;25.11;100452.35;1735508;82;20998;-70
2021/05/16 09:05:52;;;;;;;5.70;1.32;;;;;;;31.86;25.61;100439.64;1735360;81;20915;-68
2021/05/16 09:08:23;;;;;;;6.05;1.35;;;;;;;31.92;25.72;100438.16;1735485;82;21721;-69
2021/05/16 09:10:57;;;;;;;3.45;1.35;;;;;;;32.06;25.79;100436.58;1735300;81;21531;-70
2021/05/16 09:13:31;;;;;;;6.30;1.20;;;;;;;32.25;26.14;100437.27;1735399;81;20943;-69
2021/05/16 09:16:07;;;;;;;9.90;1.60;;;;;;;32.43;26.61;100435.18;1735333;82;20978;-70
2021/05/16 09:18:44;;;;;;;3.70;1.60;;;;;;;32.61;26.61;100423.33;1735517;82;20894;-71
2021/05/16 09:21:32;;;;;;;7.35;2.00;;;;;;;32.60;26.04;100424.41;1735271;81;22000;-69
2021/05/16 09:24:06;;;;;;;1.90;1.25;;;;;;;32.62;26.44;100420.11;1735302;81;20990;-70
2021/05/16 09:26:56;;;;;;;2.42;1.47;;;;;;;32.63;26.05;100419.03;1735394;82;21022;-69
2021/05/16 09:29:39;;;;;;;1.67;1.50;;;;;;;32.63;26.72;100418.48;1735303;82;20871;-69
2021/05/16 09:32:02;;;;;;;8.38;1.80;;;;;;;32.68;25.48;100415.03;1747840;82;20847;-70
2021/05/16 09:34:29;;;;;;;6.20;2.30;;;;;;;32.65;26.73;100418.80;1749598;82;20951;-69
2021/05/16 09:36:57;;;;;;;7.83;2.20;;;;;;;32.66;25.91;100415.00;1749296;82;20918;-68
2021/05/16 09:39:30;;;;;;;3.17;1.20;;;;;;;32.73;25.99;100408.36;1749122;80;20921;-70
2021/05/16 09:42:07;;;;;;;5.40;1.32;;;;;;;32.77;25.14;100406.81;1749668;82;20982;-69
2021/05/16 09:44:41;;;;;;;7.45;1.92;;;;;;;32.80;25.76;100403.59;1749325;82;20922;-70
2021/05/16 09:47:14;;;;;;;3.08;1.35;;;;;;;32.86;25.80;100396.34;1749391;82;21070;-69
2021/05/16 09:49:43;;;;;;;9.78;3.85;;;;;;;32.81;25.96;100398.44;1749216;82;20922;-69
2021/05/16 09:52:19;;;;;;;9.48;2.42;;;;;;;32.70;25.89;100399.33;1749248;82;20923;-70
2021/05/16 09:55:06;;;;;;;4.62;1.25;;;;;;;32.58;26.51;100395.32;1749244;82;21438;-68
2021/05/16 09:57:37;;;;;;;4.00;1.27;;;;;;;32.45;26.14;100395.58;1749521;80;20985;-69
2021/05/16 10:00:07;;;;;;;6.37;1.37;;;;;;;32.32;24.82;100396.69;1748931;81;21531;-68
2021/05/16 10:02:34;;;;;;;5.42;2.42;;;;;;;32.29;25.96;100393.11;1749187;82;20890;-71
2021/05/16 10:05:02;;;;;;;3.55;1.35;;;;;;;32.41;25.65;100379.48;1749415;82;20906;-69
2021/05/16 10:07:29;;;;;;;4.15;1.82;;;;;;;32.47;25.62;100379.06;1749362;82;21021;-71
2021/05/16 10:09:57;;;;;;;2.85;1.17;;;;;;;32.50;24.71;100381.28;1749398;82;20871;-70
2021/05/16 10:12:24;;;;;;;5.42;1.35;;;;;;;32.40;24.97;100378.67;1749330;82;21505;-69
2021/05/16 10:15:08;;;;;;;2.95;1.45;;;;;;;32.35;25.65;100377.73;1749280;82;21010;-69
2021/05/16 10:17:36;;;;;;;3.37;1.25;;;;;;;32.34;25.63;100375.56;1749348;80;20918;-67
2021/05/16 10:20:15;;;;;;;3.15;1.50;;;;;;;32.29;26.04;100374.66;1749294;82;21403;-72
2021/05/16 10:22:42;;;;;;;1.92;0.98;;;;;;;32.18;25.11;100370.91;1736139;82;20930;-70
2021/05/16 10:25:11;;;;;;;7.80;1.42;;;;;;;32.11;25.52;100375.66;1693305;83;21119;-69
2021/05/16 10:27:46;;;;;;;23.30;7.22;;;;;;;32.19;25.56;100376.61;1647625;83;21017;-70
2021/05/16 10:30:16;;;;;;;5.00;2.20;;;;;;;32.28;25.59;100369.73;1719595;83;20930;-70
2021/05/16 10:32:50;;;;;;;2.98;1.52;;;;;;;32.41;24.98;100369.44;1670649;83;20953;-70
2021/05/16 10:35:17;;;;;;;5.85;1.65;;;;;;;32.57;24.92;100366.53;1719385;83;20870;-70
2021/05/16 10:37:54;;;;;;;11.40;1.20;;;;;;;32.75;25.88;100361.41;1719624;83;21104;-71
2021/05/16 10:40:24;;;;;;;4.25;1.42;;;;;;;32.94;25.37;100348.94;1719370;83;20934;-75
2021/05/16 10:42:58;;;;;;;3.30;1.50;;;;;;;32.96;24.29;100340.02;1719583;83;20894;-78
2021/05/16 10:45:40;;;;;;;15.63;5.55;;;;;;;32.98;24.86;100349.56;1719684;82;20914;-78
2021/05/16 10:48:15;;;;;;;5.35;1.30;;;;;;;32.90;24.47;100345.89;1719681;83;20921;-81
2021/05/16 10:50:54;;;;;;;3.95;1.07;;;;;;;32.79;24.59;100348.14;1719505;83;21027;-76
2021/05/16 10:53:36;;;;;;;3.83;1.17;;;;;;;32.75;25.17;100336.97;1719621;82;20938;-74
2021/05/16 10:56:13;;;;;;;4.20;1.17;;;;;;;32.86;25.19;100337.94;1719265;82;20930;-75
2021/05/16 10:58:45;;;;;;;3.42;1.22;;;;;;;32.84;24.82;100336.03;1718866;83;20946;-75
2021/05/16 11:01:17;;;;;;;3.27;0.98;;;;;;;32.66;25.03;100337.60;1719591;83;21399;-73
2021/05/16 11:04:00;;;;;;;4.90;1.20;;;;;;;32.55;25.31;100329.30;1719614;82;21420;-71
2021/05/16 11:06:42;;;;;;;7.72;1.37;;;;;;;32.44;25.59;100326.08;1719595;83;20930;-73
2021/05/16 11:09:14;;;;;;;2.08;1.15;;;;;;;32.37;25.97;100319.45;1719047;83;20870;-74
2021/05/16 11:11:49;;;;;;;2.72;1.10;;;;;;;32.33;25.85;100321.54;1719394;83;20974;-71
2021/05/16 11:14:23;;;;;;;1.77;1.00;;;;;;;32.29;25.53;100307.62;1719466;82;20929;-71
2021/05/16 11:17:02;;;;;;;5.67;0.88;;;;;;;32.31;26.25;100310.09;1719694;83;21057;-71
2021/05/16 11:19:32;;;;;;;2.83;1.15;;;;;;;32.20;25.71;100300.94;1719464;83;20978;-71
2021/05/16 11:22:18;;;;;;;157.15;55.40;;;;;;;31.96;25.76;100297.47;1719572;83;20982;-69
2021/05/16 11:24:51;;;;;;;65.03;21.95;;;;;;;31.76;26.20;100295.17;1719539;83;20950;-71
2021/05/16 11:27:26;;;;;;;5.33;2.10;;;;;;;31.61;26.26;100294.31;1719606;83;20977;-72
2021/05/16 11:30:03;;;;;;;127.47;39.30;;;;;;;31.55;27.01;100290.69;1719413;83;21605;-71